createdAt,value
2018-03-11T00:02:04.918Z,8.50
2018-03-11T00:04:12.011Z,8.07
2018-03-11T00:06:17.876Z,8.67
2018-03-11T00:08:24.334Z,9.00
2018-03-11T00:10:29.873Z,9.40
2018-03-11T00:12:35.243Z,9.63
2018-03-11T00:14:41.062Z,10.30
2018-03-11T00:16:46.544Z,10.80
2018-03-11T00:18:51.900Z,10.83
2018-03-11T00:20:57.684Z,10.43
2018-03-11T00:23:02.976Z,12.57
2018-03-11T00:25:08.432Z,13.20
2018-03-11T00:27:14.517Z,13.80
2018-03-11T00:29:20.036Z,13.00
2018-03-11T00:31:25.638Z,14.90
2018-03-11T00:33:31.496Z,17.30
2018-03-11T00:35:36.921Z,17.03
2018-03-11T00:37:42.597Z,76.43
2018-03-11T00:39:49.224Z,211.10
2018-03-11T00:41:54.617Z,229.40
2018-03-11T00:43:59.944Z,511.43
2018-03-11T00:46:05.608Z,322.87
2018-03-11T00:48:11.445Z,251.30
2018-03-11T00:50:16.846Z,243.87
2018-03-11T00:52:22.969Z,1999.90
2018-03-11T00:54:28.273Z,1999.90
2018-03-11T00:56:33.662Z,867.30
2018-03-11T00:58:39.972Z,470.33
2018-03-11T01:00:46.166Z,236.83
2018-03-11T01:02:51.980Z,150.03
2018-03-11T01:04:57.628Z,396.43
2018-03-11T01:07:03.000Z,479.03
2018-03-11T01:09:08.378Z,425.60
2018-03-11T01:11:14.538Z,290.53
2018-03-11T01:13:20.454Z,300.07
2018-03-11T01:15:25.839Z,255.30
2018-03-11T01:17:32.142Z,212.43
2018-03-11T01:19:41.071Z,187.40
2018-03-11T01:21:46.985Z,145.87
2018-03-11T01:23:54.076Z,128.87
2018-03-11T01:25:59.543Z,121.50
2018-03-11T01:28:05.040Z,115.43
2018-03-11T01:30:11.089Z,108.90
2018-03-11T01:32:16.969Z,87.90
2018-03-11T01:34:23.292Z,87.53
2018-03-11T01:36:28.749Z,83.70
2018-03-11T01:38:34.388Z,83.50
2018-03-11T01:40:40.089Z,74.53
2018-03-11T01:42:45.353Z,61.80
2018-03-11T01:44:51.061Z,69.10
2018-03-11T01:46:56.332Z,59.90
2018-03-11T01:49:02.208Z,53.10
2018-03-11T01:51:08.171Z,56.83
2018-03-11T01:53:14.587Z,54.70
2018-03-11T01:55:20.777Z,52.57
2018-03-11T01:57:26.658Z,48.60
2018-03-11T01:59:32.621Z,44.37
2018-03-11T02:01:38.894Z,45.87
2018-03-11T02:03:44.840Z,39.27
2018-03-11T02:05:50.893Z,41.00
2018-03-11T02:07:56.746Z,36.57
2018-03-11T02:10:02.493Z,38.03
2018-03-11T02:12:08.233Z,33.50
2018-03-11T02:14:14.440Z,35.30
2018-03-11T02:16:20.346Z,34.20
2018-03-11T02:18:26.553Z,28.30
2018-03-11T02:20:32.487Z,26.17
2018-03-11T02:22:38.540Z,26.30
2018-03-11T02:24:43.876Z,26.57
2018-03-11T02:26:50.048Z,25.53
2018-03-11T02:28:55.885Z,25.73
2018-03-11T02:31:02.403Z,25.13
2018-03-11T02:33:09.095Z,22.87
2018-03-11T02:35:15.039Z,22.73
2018-03-11T02:37:21.169Z,22.03
2018-03-11T02:39:27.048Z,22.33
2018-03-11T02:41:32.613Z,20.83
2018-03-11T02:43:38.589Z,19.60
2018-03-11T02:45:44.793Z,21.10
2018-03-11T02:47:50.757Z,18.40
2018-03-11T02:49:56.547Z,19.27
2018-03-11T02:52:02.671Z,18.07
2018-03-11T02:54:08.681Z,18.77
2018-03-11T02:56:14.516Z,17.23
2018-03-11T02:58:20.930Z,16.60
2018-03-11T03:00:26.740Z,14.97
2018-03-11T03:02:32.536Z,16.27
2018-03-11T03:04:37.875Z,15.13
2018-03-11T03:06:43.797Z,16.97
2018-03-11T03:08:49.252Z,15.73
2018-03-11T03:10:54.667Z,15.10
2018-03-11T03:13:00.107Z,14.37
2018-03-11T03:15:06.381Z,15.20
2018-03-11T03:17:12.365Z,14.30
2018-03-11T03:19:17.988Z,14.60
2018-03-11T03:21:24.112Z,14.33
2018-03-11T03:23:30.665Z,14.03
2018-03-11T03:25:36.591Z,14.50
2018-03-11T03:27:42.230Z,14.13
2018-03-11T03:29:48.303Z,12.97
2018-03-11T03:32:02.789Z,13.87
2018-03-11T03:34:08.468Z,13.10
2018-03-11T03:36:14.612Z,13.90
2018-03-11T03:38:20.504Z,14.10
2018-03-11T03:40:26.343Z,14.30
2018-03-11T03:42:32.612Z,13.40
2018-03-11T03:44:37.879Z,12.10
2018-03-11T03:46:43.197Z,12.97
2018-03-11T03:48:49.587Z,13.07
2018-03-11T03:50:55.489Z,11.47
2018-03-11T03:53:01.261Z,13.60
2018-03-11T03:55:07.315Z,13.37
2018-03-11T03:57:12.980Z,12.23
2018-03-11T03:59:18.214Z,13.47
2018-03-11T04:01:23.468Z,12.37
2018-03-11T04:03:32.972Z,13.67
2018-03-11T04:05:38.548Z,11.90
2018-03-11T04:07:43.806Z,12.40
2018-03-11T04:09:49.689Z,13.40
2018-03-11T04:11:55.435Z,13.33
2018-03-11T04:14:01.803Z,11.73
2018-03-11T04:16:07.563Z,13.40
2018-03-11T04:18:12.989Z,12.20
2018-03-11T04:20:18.805Z,12.60
2018-03-11T04:22:24.408Z,12.23
2018-03-11T04:24:30.327Z,12.10
2018-03-11T04:26:36.600Z,12.53
2018-03-11T04:28:42.539Z,11.73
2018-03-11T04:30:48.832Z,12.33
2018-03-11T04:32:54.558Z,11.00
2018-03-11T04:35:01.089Z,10.53
2018-03-11T04:37:07.595Z,10.60
2018-03-11T04:39:13.160Z,12.70
2018-03-11T04:41:18.442Z,11.33
2018-03-11T04:43:23.727Z,10.20
2018-03-11T04:45:30.711Z,11.40
2018-03-11T04:47:40.808Z,12.43
2018-03-11T04:49:46.796Z,12.43
2018-03-11T04:51:52.684Z,10.90
2018-03-11T04:53:58.742Z,12.73
2018-03-11T04:56:05.437Z,12.13
2018-03-11T04:58:11.685Z,10.90
2018-03-11T05:00:17.551Z,11.50
2018-03-11T05:02:22.997Z,11.83
2018-03-11T05:04:28.392Z,11.67
2018-03-11T05:06:34.703Z,11.80
2018-03-11T05:08:40.708Z,12.40
2018-03-11T05:10:46.582Z,11.80
2018-03-11T05:12:52.292Z,13.43
2018-03-11T05:14:58.119Z,11.97
2018-03-11T05:17:03.550Z,11.10
2018-03-11T05:19:09.679Z,12.23
2018-03-11T05:21:15.838Z,11.13
2018-03-11T05:23:21.528Z,12.50
2018-03-11T05:25:27.479Z,11.43
2018-03-11T05:27:33.175Z,11.10
2018-03-11T05:29:38.936Z,10.93
2018-03-11T05:31:45.754Z,11.93
2018-03-11T05:33:51.380Z,11.30
2018-03-11T05:35:57.445Z,10.77
2018-03-11T05:38:04.070Z,11.40
2018-03-11T05:40:09.768Z,10.90
2018-03-11T05:42:15.659Z,12.00
2018-03-11T05:44:21.540Z,12.60
2018-03-11T05:46:27.474Z,11.20
2018-03-11T05:48:36.520Z,11.10
2018-03-11T05:50:42.738Z,12.03
2018-03-11T05:52:48.644Z,12.10
2018-03-11T05:54:54.060Z,12.27
2018-03-11T05:57:00.231Z,14.53
2018-03-11T05:59:06.197Z,12.50
2018-03-11T06:01:12.453Z,10.73
2018-03-11T06:03:17.731Z,11.10
2018-03-11T06:05:23.316Z,10.53
2018-03-11T06:07:29.444Z,10.50
2018-03-11T06:09:35.156Z,12.13
2018-03-11T06:11:40.792Z,10.67
2018-03-11T06:13:46.202Z,10.83
2018-03-11T06:15:51.996Z,9.97
2018-03-11T06:17:58.139Z,10.63
2018-03-11T06:20:03.875Z,10.67
2018-03-11T06:22:09.720Z,10.00
2018-03-11T06:24:16.401Z,10.53
2018-03-11T06:26:22.899Z,11.43
2018-03-11T06:28:28.672Z,10.00
2018-03-11T06:30:34.597Z,11.47
2018-03-11T06:32:40.499Z,10.77
2018-03-11T06:34:45.827Z,9.90
2018-03-11T06:36:51.913Z,10.77
2018-03-11T06:39:02.345Z,10.23
2018-03-11T06:41:08.993Z,9.83
2018-03-11T06:43:14.668Z,11.53
2018-03-11T06:45:24.787Z,11.20
2018-03-11T06:47:30.884Z,12.77
2018-03-11T06:49:36.349Z,12.50
2018-03-11T06:51:43.836Z,11.40
2018-03-11T06:53:50.066Z,11.10
2018-03-11T06:55:56.480Z,11.77
2018-03-11T06:58:02.106Z,10.80
2018-03-11T07:00:09.697Z,10.90
2018-03-11T07:02:15.084Z,10.60
2018-03-11T07:04:20.708Z,11.47
2018-03-11T07:06:26.123Z,11.57
2018-03-11T07:08:32.495Z,9.73
2018-03-11T07:10:38.221Z,581.97
2018-03-11T07:12:55.025Z,474.20
2018-03-11T07:15:00.948Z,327.00
2018-03-11T07:17:07.032Z,302.07
2018-03-11T07:19:12.397Z,260.10
2018-03-11T07:21:17.821Z,222.17
2018-03-11T07:23:24.865Z,184.53
2018-03-11T07:25:30.135Z,163.20
2018-03-11T07:27:35.809Z,132.77
2018-03-11T07:29:43.301Z,120.57
2018-03-11T07:31:48.636Z,89.30
2018-03-11T07:33:54.300Z,83.90
2018-03-11T07:36:00.243Z,105.27
2018-03-11T07:38:06.159Z,92.70
2018-03-11T07:42:21.479Z,85.57
2018-03-11T07:44:26.744Z,82.87
2018-03-11T07:46:32.145Z,79.63
2018-03-11T07:48:37.836Z,67.93
2018-03-11T07:50:43.636Z,52.53
2018-03-11T07:52:49.775Z,62.57
2018-03-11T07:54:55.743Z,186.93
2018-03-11T07:57:01.422Z,479.07
2018-03-11T07:59:06.927Z,528.60
2018-03-11T08:01:12.628Z,918.93
2018-03-11T08:03:18.046Z,478.33
2018-03-11T08:05:23.368Z,323.90
2018-03-11T08:07:33.176Z,462.83
2018-03-11T08:09:41.088Z,445.10
2018-03-11T08:11:46.404Z,367.00
2018-03-11T08:13:52.029Z,348.50
2018-03-11T08:15:57.394Z,263.07
2018-03-11T08:18:02.770Z,236.77
2018-03-11T08:20:09.308Z,1999.60
2018-03-11T08:22:14.816Z,352.93
2018-03-11T08:24:20.216Z,469.27
2018-03-11T08:26:26.825Z,343.27
2018-03-11T08:28:32.556Z,376.17
2018-03-11T08:30:37.880Z,239.00
2018-03-11T08:32:44.178Z,260.83
2018-03-11T08:34:50.710Z,225.20
2018-03-11T08:36:56.786Z,272.87
2018-03-11T08:39:03.480Z,224.13
2018-03-11T08:41:09.126Z,208.73
2018-03-11T08:43:16.829Z,209.40
2018-03-11T08:45:24.136Z,186.47
2018-03-11T08:47:31.893Z,445.87
2018-03-11T08:49:40.142Z,433.17
2018-03-11T08:51:46.652Z,287.53
2018-03-11T08:53:53.550Z,508.03
2018-03-11T08:55:59.422Z,319.50
2018-03-11T08:58:05.114Z,251.30
2018-03-11T09:00:12.618Z,170.87
2018-03-11T09:02:17.935Z,123.80
2018-03-11T09:04:23.629Z,115.30
2018-03-11T09:06:29.206Z,87.13
2018-03-11T09:08:34.503Z,60.80
2018-03-11T09:10:40.727Z,64.70
2018-03-11T09:12:51.056Z,565.47
2018-03-11T09:14:57.493Z,403.70
2018-03-11T09:17:03.293Z,278.03
2018-03-11T09:19:08.660Z,301.27
2018-03-11T09:21:13.948Z,137.27
2018-03-11T09:23:19.567Z,108.30
2018-03-11T09:25:25.163Z,101.87
2018-03-11T09:27:31.105Z,71.50
2018-03-11T09:29:36.706Z,50.83
2018-03-11T09:31:42.103Z,40.13
2018-03-11T09:33:47.290Z,51.60
2018-03-11T09:35:52.927Z,33.50
2018-03-11T09:37:58.628Z,30.10
2018-03-11T09:40:04.976Z,35.87
2018-03-11T09:42:10.577Z,418.17
2018-03-11T09:44:15.937Z,545.23
2018-03-11T09:46:21.446Z,184.60
2018-03-11T09:48:27.053Z,113.23
2018-03-11T09:50:32.416Z,110.07
2018-03-11T09:52:37.784Z,90.90
2018-03-11T09:54:43.340Z,61.63
2018-03-11T09:56:48.883Z,53.30
2018-03-11T09:58:54.175Z,39.53
2018-03-11T10:00:59.848Z,41.27
2018-03-11T10:03:05.197Z,29.77
2018-03-11T10:05:11.082Z,26.27
2018-03-11T10:07:17.808Z,197.33
2018-03-11T10:09:23.424Z,231.40
2018-03-11T10:11:28.765Z,151.93
2018-03-11T10:13:34.347Z,168.63
2018-03-11T10:15:40.600Z,125.27
2018-03-11T10:17:45.944Z,84.87
2018-03-11T10:19:51.547Z,57.40
2018-03-11T10:21:56.897Z,93.33
2018-03-11T10:24:02.544Z,185.40
2018-03-11T10:26:08.195Z,139.17
2018-03-11T10:28:13.482Z,149.83
2018-03-11T10:30:18.827Z,176.53
2018-03-11T10:32:24.381Z,120.70
2018-03-11T10:34:30.764Z,118.93
2018-03-11T10:36:36.398Z,117.80
2018-03-11T10:38:42.079Z,103.63
2018-03-11T10:40:47.423Z,99.97
2018-03-11T10:42:52.731Z,89.17
2018-03-11T10:44:58.305Z,107.07
2018-03-11T10:47:03.805Z,82.80
2018-03-11T10:49:09.465Z,76.97
2018-03-11T10:51:16.425Z,80.40
2018-03-11T10:53:21.704Z,76.23
2018-03-11T10:55:27.101Z,72.43
2018-03-11T10:57:33.780Z,75.10
2018-03-11T10:59:39.180Z,68.27
2018-03-11T11:01:47.314Z,69.47
2018-03-11T11:03:53.695Z,62.40
2018-03-11T11:05:58.985Z,62.77
2018-03-11T11:08:12.956Z,62.67
2018-03-11T11:10:24.900Z,59.20
2018-03-11T11:12:36.955Z,80.20
2018-03-11T11:14:50.368Z,94.70
2018-03-11T11:16:58.433Z,107.33
2018-03-11T11:19:04.961Z,162.53
2018-03-11T11:21:10.199Z,166.73
2018-03-11T11:23:15.796Z,162.07
2018-03-11T11:25:21.560Z,177.07
2018-03-11T11:27:26.825Z,157.83
2018-03-11T11:29:33.427Z,168.00
2018-03-11T11:33:03.544Z,164.90
2018-03-11T11:35:09.992Z,493.83
2018-03-11T11:37:15.608Z,136.47
2018-03-11T11:39:21.422Z,192.33
2018-03-11T11:41:26.973Z,203.57
2018-03-11T11:43:32.332Z,284.60
2018-03-11T11:45:37.636Z,275.47
2018-03-11T11:47:43.339Z,314.43
2018-03-11T11:49:48.592Z,300.23
2018-03-11T11:51:53.880Z,287.70
2018-03-11T11:54:00.255Z,277.97
2018-03-11T11:56:05.609Z,257.13
2018-03-11T11:58:11.059Z,247.83
2018-03-11T12:00:25.254Z,238.90
2018-03-11T12:02:30.584Z,541.37
2018-03-11T12:04:35.908Z,227.93
2018-03-11T12:06:41.841Z,268.27
2018-03-11T12:08:47.268Z,289.97
2018-03-11T12:10:52.726Z,324.27
2018-03-11T12:12:59.419Z,358.60
2018-03-11T12:15:04.821Z,425.20
2018-03-11T12:17:10.202Z,366.03
2018-03-11T12:19:16.428Z,352.37
2018-03-11T12:21:21.844Z,335.70
2018-03-11T12:23:27.316Z,326.97
2018-03-11T12:25:32.960Z,320.80
2018-03-11T12:27:38.503Z,311.33
2018-03-11T12:29:43.964Z,315.33
2018-03-11T12:31:49.540Z,277.77
2018-03-11T12:33:54.956Z,276.83
2018-03-11T12:36:00.388Z,273.20
2018-03-11T12:38:06.296Z,256.03
2018-03-11T12:40:11.690Z,257.40
2018-03-11T12:42:17.002Z,250.90
2018-03-11T12:45:24.992Z,242.10
2018-03-11T12:47:30.332Z,239.67
2018-03-11T12:49:36.756Z,225.73
2018-03-11T12:51:42.023Z,225.93
2018-03-11T12:53:47.377Z,209.27
2018-03-11T12:55:53.020Z,208.40
2018-03-11T12:57:58.304Z,195.40
2018-03-11T13:00:03.976Z,207.50
2018-03-11T13:02:09.572Z,211.10
2018-03-11T13:04:15.029Z,249.40
2018-03-11T13:06:21.262Z,347.60
2018-03-11T13:08:26.900Z,378.77
2018-03-11T13:10:32.528Z,399.20
2018-03-11T13:12:37.988Z,403.30
2018-03-11T13:14:43.642Z,405.60
2018-03-11T13:16:49.177Z,378.33
2018-03-11T13:18:54.988Z,341.00
2018-03-11T13:21:08.697Z,327.03
2018-03-11T13:23:15.548Z,317.27
2018-03-11T13:25:20.928Z,309.70
2018-03-11T13:27:30.808Z,275.63
2018-03-11T13:29:36.512Z,358.47
2018-03-11T13:31:41.908Z,391.83
2018-03-11T13:34:30.782Z,733.90
2018-03-11T13:36:36.152Z,393.80
2018-03-11T13:40:49.014Z,440.00
2018-03-11T13:42:54.310Z,459.53
2018-03-11T13:45:08.047Z,452.70
2018-03-11T13:47:13.648Z,440.00
2018-03-11T13:49:19.283Z,421.87
2018-03-11T13:51:33.010Z,419.80
2018-03-11T13:53:56.878Z,406.63
2018-03-11T13:56:02.873Z,390.87
2018-03-11T13:59:26.833Z,384.40
2018-03-11T14:01:32.390Z,361.23
2018-03-11T14:03:37.817Z,341.23
2018-03-11T14:05:43.452Z,329.23
2018-03-11T14:07:48.863Z,317.77
2018-03-11T14:09:54.388Z,321.63
2018-03-11T14:12:02.239Z,297.60
2018-03-11T14:14:08.684Z,274.67
2018-03-11T14:16:14.030Z,282.87
2018-03-11T14:18:19.824Z,267.73
2018-03-11T14:20:25.278Z,267.63
2018-03-11T14:22:31.600Z,259.17
2018-03-11T14:24:39.124Z,251.97
2018-03-11T14:26:44.419Z,238.70
2018-03-11T14:28:49.742Z,234.90
2018-03-11T14:30:55.848Z,229.27
2018-03-11T14:33:01.246Z,232.60
2018-03-11T14:35:06.730Z,213.03
2018-03-11T14:37:12.448Z,216.07
2018-03-11T14:39:17.744Z,217.77
2018-03-11T14:41:23.138Z,207.23
2018-03-11T14:43:28.860Z,197.00
2018-03-11T14:45:34.171Z,185.77
2018-03-11T14:47:44.064Z,177.13
2018-03-11T14:49:49.944Z,168.83
2018-03-11T14:51:57.212Z,162.33
2018-03-11T14:54:04.013Z,154.00
2018-03-11T14:56:09.738Z,157.40
2018-03-11T14:58:15.384Z,145.20
2018-03-11T15:00:20.704Z,146.03
2018-03-11T15:02:26.357Z,138.73
2018-03-11T15:04:31.676Z,129.23
2018-03-11T15:06:37.127Z,129.10
2018-03-11T15:08:43.056Z,120.20
2018-03-11T15:10:48.393Z,119.83
2018-03-11T15:12:53.726Z,116.50
2018-03-11T15:14:59.477Z,112.13
2018-03-11T15:17:04.824Z,108.20
2018-03-11T15:19:10.220Z,105.83
2018-03-11T15:21:15.841Z,103.40
2018-03-11T15:23:21.153Z,100.70
2018-03-11T15:25:26.492Z,96.70
2018-03-11T15:27:32.637Z,90.87
2018-03-11T15:29:38.012Z,95.07
2018-03-11T15:31:43.385Z,90.13
2018-03-11T15:33:49.026Z,89.63
2018-03-11T15:35:54.415Z,86.87
2018-03-11T15:37:59.753Z,77.67
2018-03-11T15:40:05.499Z,77.03
2018-03-11T15:42:10.860Z,72.07
2018-03-11T15:44:16.227Z,74.03
2018-03-11T15:46:21.866Z,74.80
2018-03-11T15:48:27.395Z,66.03
2018-03-11T15:50:33.320Z,66.20
2018-03-11T15:52:38.928Z,64.73
2018-03-11T15:54:44.427Z,65.53
2018-03-11T15:56:49.951Z,63.43
2018-03-11T15:58:55.736Z,60.80
2018-03-11T16:01:01.053Z,60.03
2018-03-11T16:03:06.422Z,58.47
2018-03-11T16:05:12.555Z,56.97
2018-03-11T16:07:18.295Z,52.90
2018-03-11T16:09:23.528Z,52.03
2018-03-11T16:11:29.138Z,48.87
2018-03-11T16:13:34.377Z,48.03
2018-03-11T16:15:39.673Z,47.87
2018-03-11T16:17:45.294Z,47.40
2018-03-11T16:19:53.204Z,45.57
2018-03-11T16:21:58.540Z,45.30
2018-03-11T16:24:04.297Z,43.60
2018-03-11T16:26:09.596Z,42.87
2018-03-11T16:28:14.948Z,40.67
2018-03-11T16:30:20.559Z,43.13
2018-03-11T16:32:26.912Z,40.50
2018-03-11T16:34:33.162Z,40.77
2018-03-11T16:36:38.750Z,39.47
2018-03-11T16:38:44.666Z,41.97
2018-03-11T16:40:50.776Z,38.20
2018-03-11T16:42:56.461Z,36.10
2018-03-11T16:45:02.626Z,34.50
2018-03-11T16:47:07.965Z,36.67
2018-03-11T16:49:14.296Z,34.80
2018-03-11T16:51:19.761Z,35.30
2018-03-11T16:53:25.275Z,30.57
2018-03-11T16:55:30.957Z,29.97
2018-03-11T16:57:36.479Z,31.73
2018-03-11T16:59:41.846Z,30.97
2018-03-11T17:01:48.697Z,33.40
2018-03-11T17:03:55.174Z,28.77
2018-03-11T17:06:04.779Z,28.60
2018-03-11T17:08:11.173Z,29.67
2018-03-11T17:10:17.385Z,27.33
2018-03-11T17:12:26.169Z,27.50
2018-03-11T17:14:33.476Z,26.40
2018-03-11T17:16:39.242Z,26.80
2018-03-11T17:18:44.704Z,23.73
2018-03-11T17:20:50.376Z,19.70
2018-03-11T17:22:55.754Z,14.60
2018-03-11T17:25:01.968Z,20.83
2018-03-11T17:27:07.775Z,28.10
2018-03-11T17:29:13.737Z,700.73
2018-03-11T17:31:19.107Z,553.50
2018-03-11T17:33:24.676Z,560.57
2018-03-11T17:35:30.906Z,748.80
2018-03-11T17:37:36.318Z,218.43
2018-03-11T17:39:41.926Z,50.80
2018-03-11T17:41:47.317Z,25.50
2018-03-11T17:43:52.725Z,21.37
2018-03-11T17:45:58.376Z,16.83
2018-03-11T17:48:03.666Z,17.37
2018-03-11T17:50:08.501Z,20.43
2018-03-11T17:52:14.248Z,14.70
2018-03-11T17:54:19.632Z,15.97
2018-03-11T17:56:25.844Z,14.00
2018-03-11T17:58:32.185Z,15.37
2018-03-11T18:00:37.641Z,14.57
2018-03-11T18:02:42.993Z,17.80
2018-03-11T18:04:49.089Z,14.50
2018-03-11T18:06:55.071Z,10.23
2018-03-11T18:09:00.465Z,11.33
2018-03-11T18:11:06.558Z,9.93
2018-03-11T18:13:12.110Z,11.03
2018-03-11T18:15:17.758Z,8.13
2018-03-11T18:17:23.395Z,9.20
2018-03-11T18:19:28.700Z,8.33
2018-03-11T18:21:34.692Z,7.73
2018-03-11T18:23:41.032Z,9.13
2018-03-11T18:25:46.791Z,318.17
2018-03-11T18:27:52.495Z,222.60
2018-03-11T18:29:58.395Z,451.17
2018-03-11T18:32:03.782Z,345.77
2018-03-11T18:34:09.272Z,244.47
2018-03-11T18:36:15.797Z,178.57
2018-03-11T18:38:21.136Z,132.33
2018-03-11T18:40:26.525Z,137.63
2018-03-11T18:42:32.145Z,993.53
2018-03-11T18:44:37.428Z,459.60
2018-03-11T18:46:42.787Z,414.87
2018-03-11T18:48:49.008Z,348.30
2018-03-11T18:50:54.441Z,105.47
2018-03-11T18:52:59.824Z,99.40
2018-03-11T18:55:05.687Z,57.87
2018-03-11T18:57:11.708Z,63.63
2018-03-11T18:59:17.576Z,59.83
2018-03-11T19:01:23.606Z,40.40
2018-03-11T19:03:28.948Z,45.07
2018-03-11T19:05:34.448Z,58.13
2018-03-11T19:07:43.208Z,54.63
2018-03-11T19:09:50.655Z,40.23
2018-03-11T19:11:55.990Z,594.37
2018-03-11T19:14:02.405Z,70.67
2018-03-11T19:16:07.835Z,36.80
2018-03-11T19:18:13.451Z,37.27
2018-03-11T19:20:20.392Z,36.67
2018-03-11T19:22:26.649Z,40.77
2018-03-11T19:24:32.057Z,595.97
2018-03-11T19:26:37.740Z,370.93
2018-03-11T19:28:43.124Z,776.17
2018-03-11T19:30:49.381Z,262.37
2018-03-11T19:32:55.280Z,541.63
2018-03-11T19:35:00.619Z,639.77
2018-03-11T19:37:06.094Z,257.07
2018-03-11T19:39:12.520Z,40.73
2018-03-11T19:41:17.925Z,21.67
2018-03-11T19:43:23.589Z,20.80
2018-03-11T19:45:29.248Z,18.90
2018-03-11T19:47:34.986Z,15.20
2018-03-11T19:49:41.456Z,16.83
2018-03-11T19:51:47.137Z,12.67
2018-03-11T19:53:52.456Z,14.87
2018-03-11T19:55:57.955Z,12.90
2018-03-11T19:58:04.987Z,15.40
2018-03-11T20:00:10.984Z,14.17
2018-03-11T20:02:17.804Z,11.87
2018-03-11T20:04:23.614Z,140.10
2018-03-11T20:06:29.878Z,611.47
2018-03-11T20:08:35.258Z,242.87
2018-03-11T20:10:41.438Z,297.27
2018-03-11T20:12:48.257Z,625.40
2018-03-11T20:14:53.710Z,581.27
2018-03-11T20:17:00.458Z,334.60
2018-03-11T20:19:06.723Z,55.03
2018-03-11T20:21:12.289Z,702.20
2018-03-11T20:23:17.999Z,90.27
2018-03-11T20:25:23.338Z,156.73
2018-03-11T20:27:28.840Z,40.37
2018-03-11T20:29:34.559Z,404.67
2018-03-11T20:31:40.631Z,88.77
2018-03-11T20:33:45.948Z,363.53
2018-03-11T20:35:51.615Z,75.73
2018-03-11T20:37:57.208Z,63.17
2018-03-11T20:40:04.136Z,65.30
2018-03-11T20:42:16.007Z,77.00
2018-03-11T20:44:21.778Z,34.57
2018-03-11T20:46:28.192Z,41.63
2018-03-11T20:48:34.873Z,79.63
2018-03-11T20:50:40.971Z,8.50
2018-03-11T20:52:47.582Z,5.33
2018-03-11T20:54:53.861Z,5.60
2018-03-11T20:56:59.726Z,5.70
2018-03-11T20:59:06.340Z,4.83
2018-03-11T21:01:12.306Z,5.10
2018-03-11T21:03:18.379Z,5.80
2018-03-11T21:05:24.577Z,6.60
2018-03-11T21:07:30.565Z,6.00
2018-03-11T21:09:36.028Z,6.43
2018-03-11T21:11:41.941Z,6.33
2018-03-11T21:13:49.122Z,5.73
2018-03-11T21:15:55.125Z,6.17
2018-03-11T21:18:00.802Z,6.03
2018-03-11T21:20:06.508Z,6.13
2018-03-11T21:22:12.845Z,5.67
2018-03-11T21:24:20.679Z,5.53
2018-03-11T21:26:26.676Z,6.90
2018-03-11T21:28:31.971Z,5.57
2018-03-11T21:30:37.789Z,5.60
2018-03-11T21:32:45.696Z,5.27
2018-03-11T21:34:51.030Z,5.83
2018-03-11T21:36:56.297Z,5.87
2018-03-11T21:39:01.948Z,5.50
2018-03-11T21:41:09.051Z,5.20
2018-03-11T21:43:14.943Z,5.77
2018-03-11T21:45:20.489Z,5.17
2018-03-11T21:47:27.436Z,5.20
2018-03-11T21:49:32.981Z,6.10
2018-03-11T21:51:38.830Z,5.40
2018-03-11T21:53:46.507Z,5.70
2018-03-11T21:55:51.903Z,4.80
2018-03-11T21:57:57.536Z,4.93
2018-03-11T22:00:05.357Z,5.27
2018-03-11T22:02:10.669Z,5.33
2018-03-11T22:04:16.238Z,5.17
2018-03-11T22:06:30.864Z,5.10
2018-03-11T22:08:37.889Z,5.03
2018-03-11T22:10:43.912Z,4.97
2018-03-11T22:12:49.581Z,4.93
2018-03-11T22:14:54.871Z,7.00
2018-03-11T22:17:01.088Z,6.63
2018-03-11T22:19:06.503Z,4.83
2018-03-11T22:21:11.762Z,4.80
2018-03-11T22:23:17.864Z,5.60
2018-03-11T22:25:23.335Z,5.63
2018-03-11T22:27:28.754Z,5.97
